Springcreek, Louisiana
Current Conditions -  °F | °C
As of 7:53 PM on Wednesday 26 Nov 2014 (Local Time) from KMCB Reporting Station
Clear Clear  
Wind Chill: 57°   Ceiling: Unl
Heat Index: 57°   Visibility: 10mi
Dew Point: 39°   Wind: 5mph
Humidity: 51%   Direction: 240°WSW
Pressure: 30.18"   Gusts: NA
Location:  30.881°N, 90.466°W
Report Text: KMCB 270153Z AUTO 24004KT 10SM CLR 14/04 A3018 RMK AO2 SLP219 T01390039
Loading
Personal Weather Stations






























Interactive Weather Map New forecast layout! Learn more

10-Day Weather Forecast

Advertisements
Track Severe Weather on mobile